sensor_id;sensor_type;location;lat;lon;timestamp;pressure;altitude;pressure_sealevel;temperature;humidity
46267;BME280;31998;48.798;15.066;2023-01-19T00:00:36;94352.75;;;-1.48;100.00
46267;BME280;31998;48.798;15.066;2023-01-19T00:03:05;94355.16;;;-1.47;100.00
46267;BME280;31998;48.798;15.066;2023-01-19T00:05:30;94363.59;;;-1.45;100.00
46267;BME280;31998;48.798;15.066;2023-01-19T00:07:57;94365.19;;;-1.44;100.00
46267;BME280;31998;48.798;15.066;2023-01-19T00:10:38;94358.81;;;-1.48;100.00
46267;BME280;31998;48.798;15.066;2023-01-19T00:13:04;94360.47;;;-1.42;100.00
46267;BME280;31998;48.798;15.066;2023-01-19T00:15:29;94358.91;;;-1.43;100.00
46267;BME280;31998;48.798;15.066;2023-01-19T00:17:54;94359.97;;;-1.39;100.00
46267;BME280;31998;48.798;15.066;2023-01-19T00:20:20;94351.56;;;-1.35;100.00
46267;BME280;31998;48.798;15.066;2023-01-19T00:22:45;94355.81;;;-1.34;100.00
46267;BME280;31998;48.798;15.066;2023-01-19T00:25:18;94363.59;;;-1.23;100.00
46267;BME280;31998;48.798;15.066;2023-01-19T00:27:43;94364.66;;;-1.19;100.00
46267;BME280;31998;48.798;15.066;2023-01-19T00:30:14;94372.63;;;-1.14;100.00
46267;BME280;31998;48.798;15.066;2023-01-19T00:32:39;94380.28;;;-1.12;100.00
46267;BME280;31998;48.798;15.066;2023-01-19T00:35:05;94375.00;;;-1.12;100.00
46267;BME280;31998;48.798;15.066;2023-01-19T00:37:30;94377.97;;;-1.08;100.00
46267;BME280;31998;48.798;15.066;2023-01-19T00:39:56;94383.78;;;-1.06;100.00
46267;BME280;31998;48.798;15.066;2023-01-19T00:42:21;94378.81;;;-1.03;100.00
46267;BME280;31998;48.798;15.066;2023-01-19T00:45:10;94376.47;;;-0.99;100.00
46267;BME280;31998;48.798;15.066;2023-01-19T00:47:35;94373.34;;;-0.96;100.00
46267;BME280;31998;48.798;15.066;2023-01-19T00:50:01;94370.97;;;-0.93;100.00
46267;BME280;31998;48.798;15.066;2023-01-19T00:52:27;94375.22;;;-0.92;100.00
46267;BME280;31998;48.798;15.066;2023-01-19T00:54:52;94366.22;;;-0.96;100.00
46267;BME280;31998;48.798;15.066;2023-01-19T00:57:17;94380.50;;;-0.92;100.00
46267;BME280;31998;48.798;15.066;2023-01-19T00:59:43;94380.00;;;-0.89;100.00
46267;BME280;31998;48.798;15.066;2023-01-19T01:02:09;94374.72;;;-0.89;100.00
46267;BME280;31998;48.798;15.066;2023-01-19T01:04:36;94383.19;;;-0.87;100.00
46267;BME280;31998;48.798;15.066;2023-01-19T01:07:02;94387.50;;;-0.75;100.00
46267;BME280;31998;48.798;15.066;2023-01-19T01:09:27;94376.41;;;-0.77;100.00
46267;BME280;31998;48.798;15.066;2023-01-19T01:11:53;94378.28;;;-0.73;100.00
46267;BME280;31998;48.798;15.066;2023-01-19T01:14:18;94382.31;;;-0.65;100.00
46267;BME280;31998;48.798;15.066;2023-01-19T01:16:44;94379.16;;;-0.62;100.00
46267;BME280;31998;48.798;15.066;2023-01-19T01:19:09;94367.50;;;-0.66;100.00
46267;BME280;31998;48.798;15.066;2023-01-19T01:21:35;94373.88;;;-0.62;100.00
46267;BME280;31998;48.798;15.066;2023-01-19T01:24:02;94372.31;;;-0.63;100.00
46267;BME280;31998;48.798;15.066;2023-01-19T01:26:27;94369.13;;;-0.65;100.00
46267;BME280;31998;48.798;15.066;2023-01-19T01:28:52;94367.47;;;-0.71;100.00
46267;BME280;31998;48.798;15.066;2023-01-19T01:31:18;94373.34;;;-0.64;100.00
46267;BME280;31998;48.798;15.066;2023-01-19T01:33:43;94374.41;;;-0.65;100.00
46267;BME280;31998;48.798;15.066;2023-01-19T01:36:10;94375.19;;;-0.65;100.00
46267;BME280;31998;48.798;15.066;2023-01-19T01:38:36;94377.59;;;-0.63;100.00
46267;BME280;31998;48.798;15.066;2023-01-19T01:41:01;94373.94;;;-0.57;100.00
46267;BME280;31998;48.798;15.066;2023-01-19T01:43:45;94363.84;;;-0.60;100.00
46267;BME280;31998;48.798;15.066;2023-01-19T01:46:11;94380.34;;;-0.48;100.00
46267;BME280;31998;48.798;15.066;2023-01-19T01:51:29;94381.69;;;-0.40;100.00
46267;BME280;31998;48.798;15.066;2023-01-19T01:56:42;94373.03;;;-0.36;100.00
46267;BME280;31998;48.798;15.066;2023-01-19T01:59:13;94369.84;;;-0.38;100.00
46267;BME280;31998;48.798;15.066;2023-01-19T02:01:42;94372.28;;;-0.31;100.00
46267;BME280;31998;48.798;15.066;2023-01-19T02:04:27;94364.56;;;-0.38;100.00
46267;BME280;31998;48.798;15.066;2023-01-19T02:06:53;94372.00;;;-0.30;100.00
46267;BME280;31998;48.798;15.066;2023-01-19T02:09:37;94369.91;;;-0.28;100.00
46267;BME280;31998;48.798;15.066;2023-01-19T02:12:22;94372.53;;;-0.33;100.00
46267;BME280;31998;48.798;15.066;2023-01-19T02:15:13;94374.91;;;-0.31;100.00
46267;BME280;31998;48.798;15.066;2023-01-19T02:17:40;94373.06;;;-0.31;100.00
46267;BME280;31998;48.798;15.066;2023-01-19T02:20:06;94362.13;;;-0.44;100.00
46267;BME280;31998;48.798;15.066;2023-01-19T02:22:40;94376.19;;;-0.39;100.00
46267;BME280;31998;48.798;15.066;2023-01-19T02:25:08;94369.84;;;-0.38;100.00
46267;BME280;31998;48.798;15.066;2023-01-19T02:27:33;94374.56;;;-0.40;100.00
46267;BME280;31998;48.798;15.066;2023-01-19T02:30:01;94378.84;;;-0.39;100.00
46267;BME280;31998;48.798;15.066;2023-01-19T02:32:27;94368.78;;;-0.37;100.00
46267;BME280;31998;48.798;15.066;2023-01-19T02:34:53;94367.78;;;-0.31;100.00
46267;BME280;31998;48.798;15.066;2023-01-19T02:37:20;94360.91;;;-0.27;100.00
46267;BME280;31998;48.798;15.066;2023-01-19T02:39:53;94349.78;;;-0.34;100.00
46267;BME280;31998;48.798;15.066;2023-01-19T02:42:26;94356.16;;;-0.30;100.00
46267;BME280;31998;48.798;15.066;2023-01-19T02:44:54;94360.91;;;-0.27;100.00
46267;BME280;31998;48.798;15.066;2023-01-19T02:47:19;94363.31;;;-0.25;100.00
46267;BME280;31998;48.798;15.066;2023-01-19T02:49:54;94364.13;;;-0.24;100.00
46267;BME280;31998;48.798;15.066;2023-01-19T02:52:20;94352.69;;;-0.35;100.00
46267;BME280;31998;48.798;15.066;2023-01-19T02:55:03;94352.44;;;-0.29;100.00
46267;BME280;31998;48.798;15.066;2023-01-19T02:57:45;94347.69;;;-0.27;100.00
46267;BME280;31998;48.798;15.066;2023-01-19T03:06:21;94353.78;;;-0.31;100.00
46267;BME280;31998;48.798;15.066;2023-01-19T03:08:31;94352.97;;;-0.32;100.00
46267;BME280;31998;48.798;15.066;2023-01-19T03:11:04;94337.84;;;-0.41;100.00
46267;BME280;31998;48.798;15.066;2023-01-19T03:13:50;94359.06;;;-0.31;100.00
46267;BME280;31998;48.798;15.066;2023-01-19T03:16:20;94363.50;;;-0.37;100.00
46267;BME280;31998;48.798;15.066;2023-01-19T03:18:55;94357.13;;;-0.41;100.00
46267;BME280;31998;48.798;15.066;2023-01-19T03:21:25;94355.00;;;-0.44;100.00
46267;BME280;31998;48.798;15.066;2023-01-19T03:23:52;94364.78;;;-0.44;100.00
46267;BME280;31998;48.798;15.066;2023-01-19T03:26:23;94365.53;;;-0.49;100.00
46267;BME280;31998;48.798;15.066;2023-01-19T03:28:50;94370.31;;;-0.46;100.00
46267;BME280;31998;48.798;15.066;2023-01-19T03:31:19;94374.56;;;-0.45;100.00
46267;BME280;31998;48.798;15.066;2023-01-19T03:33:50;94378.75;;;-0.49;100.00
46267;BME280;31998;48.798;15.066;2023-01-19T03:36:23;94390.63;;;-0.51;100.00
46267;BME280;31998;48.798;15.066;2023-01-19T03:38:50;94404.06;;;-0.53;100.00
46267;BME280;31998;48.798;15.066;2023-01-19T03:41:18;94409.34;;;-0.53;100.00
46267;BME280;31998;48.798;15.066;2023-01-19T03:43:47;94409.66;;;-0.49;100.00
46267;BME280;31998;48.798;15.066;2023-01-19T03:46:14;94411.50;;;-0.50;100.00
46267;BME280;31998;48.798;15.066;2023-01-19T03:48:41;94418.31;;;-0.54;100.00
46267;BME280;31998;48.798;15.066;2023-01-19T03:51:08;94404.59;;;-0.56;100.00
46267;BME280;31998;48.798;15.066;2023-01-19T03:53:34;94408.28;;;-0.57;100.00
46267;BME280;31998;48.798;15.066;2023-01-19T03:55:59;94421.75;;;-0.59;100.00
46267;BME280;31998;48.798;15.066;2023-01-19T03:58:25;94414.63;;;-0.58;100.00
46267;BME280;31998;48.798;15.066;2023-01-19T04:00:50;94423.63;;;-0.54;100.00
46267;BME280;31998;48.798;15.066;2023-01-19T04:03:16;94415.34;;;-0.63;100.00
46267;BME280;31998;48.798;15.066;2023-01-19T04:05:43;94417.22;;;-0.63;100.00
46267;BME280;31998;48.798;15.066;2023-01-19T04:08:08;94434.13;;;-0.59;100.00
46267;BME280;31998;48.798;15.066;2023-01-19T04:10:34;94452.63;;;-0.59;100.00
46267;BME280;31998;48.798;15.066;2023-01-19T04:13:00;94461.59;;;-0.60;100.00
46267;BME280;31998;48.798;15.066;2023-01-19T04:15:27;94464.25;;;-0.60;100.00
46267;BME280;31998;48.798;15.066;2023-01-19T04:17:53;94468.53;;;-0.54;100.00
46267;BME280;31998;48.798;15.066;2023-01-19T04:20:18;94470.13;;;-0.53;100.00
46267;BME280;31998;48.798;15.066;2023-01-19T04:22:46;94466.44;;;-0.52;100.00
46267;BME280;31998;48.798;15.066;2023-01-19T04:25:11;94481.78;;;-0.49;100.00
46267;BME280;31998;48.798;15.066;2023-01-19T04:27:36;94485.22;;;-0.48;100.00
46267;BME280;31998;48.798;15.066;2023-01-19T04:30:03;94489.22;;;-0.46;100.00
46267;BME280;31998;48.798;15.066;2023-01-19T04:32:29;94488.41;;;-0.46;100.00
46267;BME280;31998;48.798;15.066;2023-01-19T04:34:55;94495.75;;;-0.53;100.00
46267;BME280;31998;48.798;15.066;2023-01-19T04:37:20;94493.91;;;-0.53;100.00
46267;BME280;31998;48.798;15.066;2023-01-19T04:39:46;94510.66;;;-0.42;100.00
46267;BME280;31998;48.798;15.066;2023-01-19T04:42:11;94505.06;;;-0.46;100.00
46267;BME280;31998;48.798;15.066;2023-01-19T04:44:37;94512.75;;;-0.44;100.00
46267;BME280;31998;48.798;15.066;2023-01-19T04:47:02;94506.38;;;-0.48;100.00
46267;BME280;31998;48.798;15.066;2023-01-19T04:49:28;94508.97;;;-0.53;100.00
46267;BME280;31998;48.798;15.066;2023-01-19T04:51:53;94521.50;;;-0.44;100.00
46267;BME280;31998;48.798;15.066;2023-01-19T04:54:19;94513.97;;;-0.57;100.00
46267;BME280;31998;48.798;15.066;2023-01-19T04:56:45;94537.78;;;-0.52;100.00
46267;BME280;31998;48.798;15.066;2023-01-19T04:59:11;94537.78;;;-0.52;100.00
46267;BME280;31998;48.798;15.066;2023-01-19T05:01:36;94542.25;;;-0.52;100.00
46267;BME280;31998;48.798;15.066;2023-01-19T05:04:02;94546.75;;;-0.53;100.00
46267;BME280;31998;48.798;15.066;2023-01-19T05:06:30;94552.53;;;-0.56;100.00
46267;BME280;31998;48.798;15.066;2023-01-19T05:08:56;94562.59;;;-0.53;100.00
46267;BME280;31998;48.798;15.066;2023-01-19T05:11:21;94559.94;;;-0.53;100.00
46267;BME280;31998;48.798;15.066;2023-01-19T05:13:46;94569.50;;;-0.52;100.00
46267;BME280;31998;48.798;15.066;2023-01-19T05:16:11;94562.84;;;-0.55;100.00
46267;BME280;31998;48.798;15.066;2023-01-19T05:18:38;94557.63;;;-0.49;100.00
46267;BME280;31998;48.798;15.066;2023-01-19T05:21:04;94560.00;;;-0.48;100.00
46267;BME280;31998;48.798;15.066;2023-01-19T05:23:30;94561.88;;;-0.48;100.00
46267;BME280;31998;48.798;15.066;2023-01-19T05:25:59;94557.13;;;-0.46;100.00
46267;BME280;31998;48.798;15.066;2023-01-19T05:28:30;94560.81;;;-0.47;100.00
46267;BME280;31998;48.798;15.066;2023-01-19T05:30:56;94549.63;;;-0.55;100.00
46267;BME280;31998;48.798;15.066;2023-01-19T05:33:22;94561.81;;;-0.53;100.00
46267;BME280;31998;48.798;15.066;2023-01-19T05:35:51;94567.88;;;-0.53;100.00
46267;BME280;31998;48.798;15.066;2023-01-19T05:38:17;94562.06;;;-0.55;100.00
46267;BME280;31998;48.798;15.066;2023-01-19T05:40:43;94567.88;;;-0.53;100.00
46267;BME280;31998;48.798;15.066;2023-01-19T05:43:09;94560.72;;;-0.58;100.00
46267;BME280;31998;48.798;15.066;2023-01-19T05:45:34;94571.56;;;-0.54;100.00
46267;BME280;31998;48.798;15.066;2023-01-19T05:48:00;94575.25;;;-0.55;100.00
46267;BME280;31998;48.798;15.066;2023-01-19T05:50:26;94573.69;;;-0.56;100.00
46267;BME280;31998;48.798;15.066;2023-01-19T05:52:51;94572.38;;;-0.53;100.00
46267;BME280;31998;48.798;15.066;2023-01-19T05:55:20;94576.56;;;-0.58;100.00
46267;BME280;31998;48.798;15.066;2023-01-19T05:57:45;94568.88;;;-0.59;100.00
46267;BME280;31998;48.798;15.066;2023-01-19T06:00:11;94573.69;;;-0.56;100.00
46267;BME280;31998;48.798;15.066;2023-01-19T06:02:36;94577.38;;;-0.57;100.00
46267;BME280;31998;48.798;15.066;2023-01-19T06:05:02;94569.91;;;-0.60;100.00
46267;BME280;31998;48.798;15.066;2023-01-19T06:07:29;94564.59;;;-0.65;100.00
46267;BME280;31998;48.798;15.066;2023-01-19T06:09:56;94565.34;;;-0.70;100.00
46267;BME280;31998;48.798;15.066;2023-01-19T06:12:21;94569.88;;;-0.65;100.00
46267;BME280;31998;48.798;15.066;2023-01-19T06:14:46;94583.31;;;-0.67;100.00
46267;BME280;31998;48.798;15.066;2023-01-19T06:17:12;94583.81;;;-0.70;100.00
46267;BME280;31998;48.798;15.066;2023-01-19T06:19:37;94583.03;;;-0.70;100.00
46267;BME280;31998;48.798;15.066;2023-01-19T06:22:02;94592.00;;;-0.71;100.00
46267;BME280;31998;48.798;15.066;2023-01-19T06:24:28;94588.00;;;-0.74;100.00
46267;BME280;31998;48.798;15.066;2023-01-19T06:26:54;94591.50;;;-0.68;100.00
46267;BME280;31998;48.798;15.066;2023-01-19T06:29:19;94582.97;;;-0.75;100.00
46267;BME280;31998;48.798;15.066;2023-01-19T06:31:46;94606.38;;;-0.62;100.00
46267;BME280;31998;48.798;15.066;2023-01-19T06:34:11;94596.25;;;-0.70;100.00
46267;BME280;31998;48.798;15.066;2023-01-19T06:36:37;94607.16;;;-0.62;100.00
46267;BME280;31998;48.798;15.066;2023-01-19T06:39:03;94603.78;;;-0.57;100.00
46267;BME280;31998;48.798;15.066;2023-01-19T06:41:33;94621.72;;;-0.59;100.00
46267;BME280;31998;48.798;15.066;2023-01-19T06:43:58;94623.06;;;-0.57;100.00
46267;BME280;31998;48.798;15.066;2023-01-19T06:46:23;94622.28;;;-0.57;100.00
46267;BME280;31998;48.798;15.066;2023-01-19T06:48:50;94618.53;;;-0.61;100.00
46267;BME280;31998;48.798;15.066;2023-01-19T06:51:15;94617.47;;;-0.60;100.00
46267;BME280;31998;48.798;15.066;2023-01-19T06:53:41;94624.34;;;-0.59;100.00
46267;BME280;31998;48.798;15.066;2023-01-19T06:56:07;94628.91;;;-0.55;100.00
46267;BME280;31998;48.798;15.066;2023-01-19T06:58:34;94642.91;;;-0.54;100.00
46267;BME280;31998;48.798;15.066;2023-01-19T07:01:04;94640.84;;;-0.52;100.00
46267;BME280;31998;48.798;15.066;2023-01-19T07:03:29;94649.78;;;-0.53;100.00
46267;BME280;31998;48.798;15.066;2023-01-19T07:05:55;94633.56;;;-0.62;100.00
46267;BME280;31998;48.798;15.066;2023-01-19T07:08:21;94643.66;;;-0.59;100.00
46267;BME280;31998;48.798;15.066;2023-01-19T07:10:47;94645.56;;;-0.54;100.00
46267;BME280;31998;48.798;15.066;2023-01-19T07:13:12;94639.72;;;-0.56;100.00
46267;BME280;31998;48.798;15.066;2023-01-19T07:15:37;94640.16;;;-0.64;100.00
46267;BME280;31998;48.798;15.066;2023-01-19T07:18:03;94652.06;;;-0.62;100.00
46267;BME280;31998;48.798;15.066;2023-01-19T07:20:33;94646.53;;;-0.60;100.00
46267;BME280;31998;48.798;15.066;2023-01-19T07:22:59;94650.53;;;-0.58;100.00
46267;BME280;31998;48.798;15.066;2023-01-19T07:25:24;94638.31;;;-0.64;100.00
46267;BME280;31998;48.798;15.066;2023-01-19T07:27:51;94634.88;;;-0.64;100.00
46267;BME280;31998;48.798;15.066;2023-01-19T07:30:17;94634.28;;;-0.71;100.00
46267;BME280;31998;48.798;15.066;2023-01-19T07:32:42;94629.97;;;-0.77;100.00
46267;BME280;31998;48.798;15.066;2023-01-19T07:35:08;94629.72;;;-0.76;100.00
46267;BME280;31998;48.798;15.066;2023-01-19T07:37:34;94637.09;;;-0.78;100.00
46267;BME280;31998;48.798;15.066;2023-01-19T07:40:00;94637.81;;;-0.83;100.00
46267;BME280;31998;48.798;15.066;2023-01-19T07:42:25;94623.19;;;-0.90;100.00
46267;BME280;31998;48.798;15.066;2023-01-19T07:44:51;94638.34;;;-0.80;100.00
46267;BME280;31998;48.798;15.066;2023-01-19T07:47:16;94642.13;;;-0.76;100.00
46267;BME280;31998;48.798;15.066;2023-01-19T07:49:41;94642.59;;;-0.79;100.00
46267;BME280;31998;48.798;15.066;2023-01-19T07:52:07;94649.41;;;-0.84;100.00
46267;BME280;31998;48.798;15.066;2023-01-19T07:54:33;94648.84;;;-0.86;100.00
46267;BME280;31998;48.798;15.066;2023-01-19T07:56:59;94651.56;;;-0.80;100.00
46267;BME280;31998;48.798;15.066;2023-01-19T07:59:27;94657.38;;;-0.78;100.00
46267;BME280;31998;48.798;15.066;2023-01-19T08:01:54;94654.19;;;-0.80;100.00
46267;BME280;31998;48.798;15.066;2023-01-19T08:04:20;94652.53;;;-0.87;100.00
46267;BME280;31998;48.798;15.066;2023-01-19T08:06:45;94658.44;;;-0.79;100.00
46267;BME280;31998;48.798;15.066;2023-01-19T08:09:11;94667.91;;;-0.84;100.00
46267;BME280;31998;48.798;15.066;2023-01-19T08:11:37;94670.56;;;-0.84;100.00
46267;BME280;31998;48.798;15.066;2023-01-19T08:14:02;94668.47;;;-0.82;100.00
46267;BME280;31998;48.798;15.066;2023-01-19T08:16:28;94673.75;;;-0.82;100.00
46267;BME280;31998;48.798;15.066;2023-01-19T08:18:53;94663.72;;;-0.79;100.00
46267;BME280;31998;48.798;15.066;2023-01-19T08:21:19;94652.63;;;-0.82;100.00
46267;BME280;31998;48.798;15.066;2023-01-19T08:23:56;94665.31;;;-0.78;100.00
46267;BME280;31998;48.798;15.066;2023-01-19T08:26:29;94660.69;;;-0.71;100.00
46267;BME280;31998;48.798;15.066;2023-01-19T08:28:57;94654.72;;;-0.62;100.00
46267;BME280;31998;48.798;15.066;2023-01-19T08:31:24;94655.50;;;-0.61;100.00
46267;BME280;31998;48.798;15.066;2023-01-19T08:33:49;94656.25;;;-0.66;100.00
46267;BME280;31998;48.798;15.066;2023-01-19T08:36:15;94651.34;;;-0.57;100.00
46267;BME280;31998;48.798;15.066;2023-01-19T08:38:43;94653.81;;;-0.50;100.00
46267;BME280;31998;48.798;15.066;2023-01-19T08:41:09;94645.19;;;-0.41;100.00
46267;BME280;31998;48.798;15.066;2023-01-19T08:43:35;94651.88;;;-0.33;100.00
46267;BME280;31998;48.798;15.066;2023-01-19T08:46:02;94656.84;;;-0.15;100.00
46267;BME280;31998;48.798;15.066;2023-01-19T08:48:28;94655.97;;;-0.20;100.00
46267;BME280;31998;48.798;15.066;2023-01-19T08:50:53;94663.88;;;-0.25;100.00
46267;BME280;31998;48.798;15.066;2023-01-19T08:53:19;94670.81;;;-0.41;100.00
46267;BME280;31998;48.798;15.066;2023-01-19T08:55:45;94677.50;;;-0.34;100.00
46267;BME280;31998;48.798;15.066;2023-01-19T08:58:10;94656.88;;;-0.37;100.00
46267;BME280;31998;48.798;15.066;2023-01-19T09:00:37;94678.00;;;-0.37;100.00
46267;BME280;31998;48.798;15.066;2023-01-19T09:03:05;94689.84;;;-0.39;100.00
46267;BME280;31998;48.798;15.066;2023-01-19T09:05:32;94676.41;;;-0.38;100.00
46267;BME280;31998;48.798;15.066;2023-01-19T09:08:02;94683.91;;;-0.30;100.00
46267;BME280;31998;48.798;15.066;2023-01-19T09:10:29;94693.97;;;-0.27;100.00
46267;BME280;31998;48.798;15.066;2023-01-19T09:12:59;94697.13;;;-0.30;100.00
46267;BME280;31998;48.798;15.066;2023-01-19T09:15:24;94701.38;;;-0.29;100.00
46267;BME280;31998;48.798;15.066;2023-01-19T09:17:51;94695.59;;;-0.25;100.00
46267;BME280;31998;48.798;15.066;2023-01-19T09:20:17;94696.88;;;-0.28;100.00
46267;BME280;31998;48.798;15.066;2023-01-19T09:22:42;94696.16;;;-0.23;100.00
46267;BME280;31998;48.798;15.066;2023-01-19T09:25:08;94690.72;;;-0.12;100.00
46267;BME280;31998;48.798;15.066;2023-01-19T09:27:34;94708.47;;;-0.07;100.00
46267;BME280;31998;48.798;15.066;2023-01-19T09:29:59;94705.09;;;-0.03;100.00
46267;BME280;31998;48.798;15.066;2023-01-19T09:32:25;94706.69;;;-0.02;100.00
46267;BME280;31998;48.798;15.066;2023-01-19T09:34:50;94705.91;;;-0.02;100.00
46267;BME280;31998;48.798;15.066;2023-01-19T09:37:18;94697.41;;;-0.04;100.00
46267;BME280;31998;48.798;15.066;2023-01-19T09:39:43;94698.81;;;0.04;100.00
46267;BME280;31998;48.798;15.066;2023-01-19T09:43:10;94711.25;;;0.03;100.00
46267;BME280;31998;48.798;15.066;2023-01-19T09:45:09;94712.41;;;0.12;100.00
46267;BME280;31998;48.798;15.066;2023-01-19T09:47:39;94712.19;;;0.19;100.00
46267;BME280;31998;48.798;15.066;2023-01-19T09:50:12;94708.34;;;0.26;100.00
46267;BME280;31998;48.798;15.066;2023-01-19T09:52:42;94710.41;;;0.24;100.00
46267;BME280;31998;48.798;15.066;2023-01-19T09:55:19;94700.81;;;0.18;100.00
46267;BME280;31998;48.798;15.066;2023-01-19T09:57:46;94702.72;;;0.23;100.00
46267;BME280;31998;48.798;15.066;2023-01-19T10:00:16;94695.78;;;0.17;100.00
46267;BME280;31998;48.798;15.066;2023-01-19T10:02:45;94686.47;;;0.09;100.00
46267;BME280;31998;48.798;15.066;2023-01-19T10:05:29;94695.13;;;0.05;100.00
46267;BME280;31998;48.798;15.066;2023-01-19T10:10:47;94702.31;;;0.09;100.00
46267;BME280;31998;48.798;15.066;2023-01-19T10:18:47;94699.34;;;0.01;100.00
46267;BME280;31998;48.798;15.066;2023-01-19T10:21:22;94697.22;;;0.03;100.00
46267;BME280;31998;48.798;15.066;2023-01-19T10:24:27;94706.94;;;-0.03;100.00
46267;BME280;31998;48.798;15.066;2023-01-19T10:26:53;94699.56;;;-0.01;100.00
46267;BME280;31998;48.798;15.066;2023-01-19T10:29:30;94689.59;;;0.06;100.00
46267;BME280;31998;48.798;15.066;2023-01-19T10:32:16;94691.75;;;0.09;100.00
46267;BME280;31998;48.798;15.066;2023-01-19T10:34:43;94689.19;;;0.19;100.00
46267;BME280;31998;48.798;15.066;2023-01-19T10:37:35;94686.00;;;0.17;100.00
46267;BME280;31998;48.798;15.066;2023-01-19T10:42:38;94693.28;;;0.32;100.00
46267;BME280;31998;48.798;15.066;2023-01-19T10:45:14;94695.38;;;0.30;100.00
46267;BME280;31998;48.798;15.066;2023-01-19T10:47:41;94695.53;;;0.18;100.00
46267;BME280;31998;48.798;15.066;2023-01-19T10:50:26;94673.91;;;-0.01;100.00
46267;BME280;31998;48.798;15.066;2023-01-19T10:52:55;94686.06;;;-0.05;100.00
46267;BME280;31998;48.798;15.066;2023-01-19T10:55:33;94681.38;;;0.03;100.00
46267;BME280;31998;48.798;15.066;2023-01-19T10:57:59;94681.63;;;0.01;100.00
46267;BME280;31998;48.798;15.066;2023-01-19T11:00:32;94680.56;;;0.02;100.00
46267;BME280;31998;48.798;15.066;2023-01-19T11:02:58;94685.25;;;-0.05;100.00
46267;BME280;31998;48.798;15.066;2023-01-19T11:05:29;94686.31;;;-0.06;100.00
46267;BME280;31998;48.798;15.066;2023-01-19T11:07:55;94684.75;;;-0.02;100.00
46267;BME280;31998;48.798;15.066;2023-01-19T11:10:28;94682.66;;;0.00;100.00
46267;BME280;31998;48.798;15.066;2023-01-19T11:13:08;94678.66;;;-0.03;100.00
46267;BME280;31998;48.798;15.066;2023-01-19T11:15:56;94690.81;;;-0.02;100.00
46267;BME280;31998;48.798;15.066;2023-01-19T11:20:54;94696.31;;;-0.08;100.00
46267;BME280;31998;48.798;15.066;2023-01-19T11:23:27;94697.91;;;-0.07;100.00
46267;BME280;31998;48.798;15.066;2023-01-19T11:25:58;94694.84;;;0.01;100.00
46267;BME280;31998;48.798;15.066;2023-01-19T11:28:50;94681.50;;;-0.09;100.00
46267;BME280;31998;48.798;15.066;2023-01-19T11:36:24;94678.91;;;-0.04;100.00
46267;BME280;31998;48.798;15.066;2023-01-19T11:39:01;94676.28;;;-0.04;100.00
46267;BME280;31998;48.798;15.066;2023-01-19T11:41:38;94668.09;;;-0.03;100.00
46267;BME280;31998;48.798;15.066;2023-01-19T11:44:15;94675.56;;;0.06;100.00
46267;BME280;31998;48.798;15.066;2023-01-19T11:46:43;94668.69;;;0.05;100.00
46267;BME280;31998;48.798;15.066;2023-01-19T11:49:22;94653.00;;;-0.02;100.00
46267;BME280;31998;48.798;15.066;2023-01-19T11:52:16;94686.06;;;0.22;100.00
46267;BME280;31998;48.798;15.066;2023-01-19T11:57:47;94684.53;;;0.26;100.00
46267;BME280;31998;48.798;15.066;2023-01-19T12:00:41;94690.25;;;0.18;100.00
46267;BME280;31998;48.798;15.066;2023-01-19T12:05:42;94693.47;;;0.20;100.00
46267;BME280;31998;48.798;15.066;2023-01-19T12:08:20;94695.25;;;0.15;100.00
46267;BME280;31998;48.798;15.066;2023-01-19T12:10:47;94698.25;;;0.23;100.00
46267;BME280;31998;48.798;15.066;2023-01-19T12:13:25;94693.53;;;0.31;100.00
46267;BME280;31998;48.798;15.066;2023-01-19T12:16:04;94703.38;;;0.35;100.00
46267;BME280;31998;48.798;15.066;2023-01-19T12:18:40;94694.78;;;0.23;100.00
46267;BME280;31998;48.798;15.066;2023-01-19T12:21:06;94701.03;;;0.12;100.00
46267;BME280;31998;48.798;15.066;2023-01-19T12:26:27;94698.63;;;0.10;100.00
46267;BME280;31998;48.798;15.066;2023-01-19T12:28:56;94695.72;;;0.12;100.00
46267;BME280;31998;48.798;15.066;2023-01-19T12:31:24;94700.88;;;0.23;100.00
46267;BME280;31998;48.798;15.066;2023-01-19T12:33:50;94695.06;;;0.21;100.00
46267;BME280;31998;48.798;15.066;2023-01-19T12:41:28;94696.53;;;0.12;100.00
46267;BME280;31998;48.798;15.066;2023-01-19T12:46:37;94705.44;;;0.06;100.00
46267;BME280;31998;48.798;15.066;2023-01-19T12:49:06;94692.28;;;0.11;100.00
46267;BME280;31998;48.798;15.066;2023-01-19T12:51:34;94682.03;;;-0.07;100.00
46267;BME280;31998;48.798;15.066;2023-01-19T12:54:00;94701.13;;;-0.05;100.00
46267;BME280;31998;48.798;15.066;2023-01-19T12:56:31;94692.00;;;-0.14;100.00
46267;BME280;31998;48.798;15.066;2023-01-19T12:58:57;94700.00;;;-0.09;100.00
46267;BME280;31998;48.798;15.066;2023-01-19T13:01:23;94702.22;;;-0.01;100.00
46267;BME280;31998;48.798;15.066;2023-01-19T13:04:05;94702.00;;;0.06;100.00
46267;BME280;31998;48.798;15.066;2023-01-19T13:09:36;94701.72;;;0.02;100.00
46267;BME280;31998;48.798;15.066;2023-01-19T13:12:24;94703.69;;;-0.10;100.00
46267;BME280;31998;48.798;15.066;2023-01-19T13:15:32;94698.88;;;-0.13;100.00
46267;BME280;31998;48.798;15.066;2023-01-19T13:17:59;94698.88;;;-0.13;100.00
46267;BME280;31998;48.798;15.066;2023-01-19T13:20:33;94698.41;;;-0.10;100.00
46267;BME280;31998;48.798;15.066;2023-01-19T13:26:13;94701.06;;;-0.10;100.00
46267;BME280;31998;48.798;15.066;2023-01-19T13:28:49;94695.22;;;-0.12;100.00
46267;BME280;31998;48.798;15.066;2023-01-19T13:31:15;94700.81;;;-0.09;100.00
46267;BME280;31998;48.798;15.066;2023-01-19T13:33:51;94704.81;;;-0.06;100.00
46267;BME280;31998;48.798;15.066;2023-01-19T13:38:49;94712.69;;;-0.11;100.00
46267;BME280;31998;48.798;15.066;2023-01-19T13:41:18;94721.59;;;-0.17;100.00
46267;BME280;31998;48.798;15.066;2023-01-19T13:43:45;94716.25;;;-0.22;100.00